createdAt,value
2022-08-28T00:00:38.120Z,20.10
2022-08-28T00:03:06.559Z,20.30
2022-08-28T00:05:36.051Z,20.20
2022-08-28T00:08:05.450Z,20.10
2022-08-28T00:10:33.617Z,19.90
2022-08-28T00:13:01.650Z,19.90
2022-08-28T00:15:33.301Z,20.10
2022-08-28T00:18:03.493Z,20.10
2022-08-28T00:20:32.615Z,19.70
2022-08-28T00:23:01.209Z,20.10
2022-08-28T00:25:31.615Z,20.10
2022-08-28T00:28:00.453Z,20.20
2022-08-28T00:30:36.251Z,20.10
2022-08-28T00:33:07.237Z,20.30
2022-08-28T00:35:35.203Z,20.50
2022-08-28T00:38:05.939Z,20.10
2022-08-28T00:40:36.406Z,19.90
2022-08-28T00:43:05.738Z,19.70
2022-08-28T00:45:39.525Z,20.00
2022-08-28T00:48:08.476Z,19.90
2022-08-28T00:50:51.205Z,19.90
2022-08-28T00:53:20.588Z,20.10
2022-08-28T00:55:52.682Z,20.10
2022-08-28T00:58:21.076Z,20.00
2022-08-28T01:00:49.817Z,19.90
2022-08-28T01:03:17.956Z,19.70
2022-08-28T01:05:47.908Z,19.70
2022-08-28T01:08:16.097Z,19.50
2022-08-28T01:10:51.046Z,19.40
2022-08-28T01:13:20.863Z,19.40
2022-08-28T01:15:49.280Z,19.30
2022-08-28T01:18:18.371Z,19.20
2022-08-28T01:20:52.305Z,19.40
2022-08-28T01:23:29.968Z,19.70
2022-08-28T01:26:00.173Z,19.60
2022-08-28T01:28:29.333Z,19.60
2022-08-28T01:30:59.183Z,19.00
2022-08-28T01:33:28.052Z,19.20
2022-08-28T01:35:56.270Z,19.40
2022-08-28T01:38:26.945Z,19.10
2022-08-28T01:40:57.141Z,19.20
2022-08-28T01:43:28.622Z,19.20
2022-08-28T01:46:00.020Z,18.90
2022-08-28T01:48:28.533Z,19.20
2022-08-28T01:50:56.962Z,19.00
2022-08-28T01:53:32.680Z,19.10
2022-08-28T01:56:04.529Z,18.90
2022-08-28T01:58:38.076Z,19.30
2022-08-28T02:01:09.532Z,19.20
2022-08-28T02:03:37.545Z,18.80
2022-08-28T02:06:05.768Z,19.00
2022-08-28T02:08:33.551Z,19.00
2022-08-28T02:11:01.385Z,19.10
2022-08-28T02:13:29.261Z,19.10
2022-08-28T02:15:59.683Z,19.10
2022-08-28T02:18:27.663Z,18.90
2022-08-28T02:20:55.512Z,19.10
2022-08-28T02:23:23.312Z,19.10
2022-08-28T02:25:51.260Z,19.20
2022-08-28T02:28:19.313Z,19.20
2022-08-28T02:30:47.164Z,19.20
2022-08-28T02:33:17.039Z,19.30
2022-08-28T02:35:44.988Z,19.30
2022-08-28T02:38:14.083Z,19.10
2022-08-28T02:40:42.152Z,19.00
2022-08-28T02:43:10.266Z,18.60
2022-08-28T02:45:38.306Z,18.70
2022-08-28T02:48:12.052Z,18.70
2022-08-28T02:50:47.060Z,18.80
2022-08-28T02:53:15.025Z,18.70
2022-08-28T02:55:42.849Z,18.50
2022-08-28T02:58:10.751Z,18.60
2022-08-28T03:00:38.603Z,18.60
2022-08-28T03:03:06.481Z,18.60
2022-08-28T03:05:34.313Z,18.60
2022-08-28T03:08:03.826Z,18.70
2022-08-28T03:10:31.992Z,18.70
2022-08-28T03:12:59.828Z,18.60
2022-08-28T03:15:27.670Z,18.80
2022-08-28T03:17:55.441Z,18.70
2022-08-28T03:20:23.783Z,18.70
2022-08-28T03:23:09.253Z,18.80
2022-08-28T03:25:38.463Z,18.70
2022-08-28T03:28:06.310Z,18.20
2022-08-28T03:30:34.202Z,18.50
2022-08-28T03:33:02.109Z,18.20
2022-08-28T03:35:30.222Z,18.10
2022-08-28T03:37:58.019Z,18.00
2022-08-28T03:40:25.842Z,17.90
2022-08-28T03:42:55.270Z,18.20
2022-08-28T03:45:23.607Z,18.40
2022-08-28T03:47:53.485Z,18.80
2022-08-28T03:50:21.388Z,18.50
2022-08-28T03:52:49.380Z,18.60
2022-08-28T03:55:18.760Z,18.50
2022-08-28T03:57:46.747Z,18.40
2022-08-28T04:00:16.885Z,18.40
2022-08-28T04:02:46.063Z,18.20
2022-08-28T04:05:14.920Z,18.40
2022-08-28T04:07:42.725Z,18.30
2022-08-28T04:10:12.067Z,18.30
2022-08-28T04:12:40.118Z,18.30
2022-08-28T04:15:09.291Z,18.60
2022-08-28T04:17:40.997Z,19.30
2022-08-28T04:20:10.821Z,18.70
2022-08-28T04:22:38.690Z,18.30
2022-08-28T04:25:08.263Z,18.40
2022-08-28T04:27:36.326Z,18.20
2022-08-28T04:30:04.865Z,17.90
2022-08-28T04:32:35.493Z,17.70
2022-08-28T04:35:06.524Z,17.90
2022-08-28T04:37:34.709Z,18.10
2022-08-28T04:40:02.752Z,19.00
2022-08-28T04:42:30.566Z,18.50
2022-08-28T04:44:59.902Z,18.50
2022-08-28T04:47:28.854Z,18.50
2022-08-28T04:49:56.783Z,18.40
2022-08-28T04:52:26.212Z,18.30
2022-08-28T04:54:54.105Z,18.30
2022-08-28T04:57:21.893Z,18.20
2022-08-28T04:59:49.684Z,19.30
2022-08-28T05:02:17.613Z,20.00
2022-08-28T05:04:47.224Z,19.50
2022-08-28T05:07:15.323Z,19.20
2022-08-28T05:09:44.462Z,18.90
2022-08-28T05:12:17.089Z,18.70
2022-08-28T05:14:45.650Z,18.60
2022-08-28T05:17:14.876Z,18.50
2022-08-28T05:19:43.612Z,18.30
2022-08-28T05:22:11.734Z,18.40
2022-08-28T05:24:40.300Z,18.40
2022-08-28T05:27:09.655Z,18.40
2022-08-28T05:29:37.597Z,18.40
2022-08-28T05:32:06.380Z,18.50
2022-08-28T05:34:34.376Z,18.30
2022-08-28T05:37:02.203Z,18.30
2022-08-28T05:39:30.094Z,18.00
2022-08-28T05:41:57.943Z,18.30
2022-08-28T05:44:27.163Z,18.40
2022-08-28T05:46:55.813Z,18.50
2022-08-28T05:49:23.738Z,18.20
2022-08-28T05:51:52.313Z,18.20
2022-08-28T05:54:20.341Z,18.40
2022-08-28T05:56:48.356Z,19.60
2022-08-28T05:59:16.772Z,19.70
2022-08-28T06:01:47.888Z,19.60
2022-08-28T06:04:18.138Z,19.60
2022-08-28T06:06:46.709Z,19.00
2022-08-28T06:09:16.037Z,18.60
2022-08-28T06:11:46.058Z,18.60
2022-08-28T06:14:16.555Z,18.80
2022-08-28T06:16:49.389Z,18.90
2022-08-28T06:19:17.877Z,18.40
2022-08-28T06:21:46.768Z,18.60
2022-08-28T06:24:15.018Z,18.80
2022-08-28T06:26:42.887Z,18.90
2022-08-28T06:29:13.021Z,18.80
2022-08-28T06:31:41.450Z,18.70
2022-08-28T06:34:10.833Z,18.60
2022-08-28T06:36:42.352Z,18.60
2022-08-28T06:39:12.460Z,18.70
2022-08-28T06:41:43.147Z,18.60
2022-08-28T06:44:12.395Z,18.70
2022-08-28T06:46:40.954Z,18.90
2022-08-28T06:49:10.271Z,19.10
2022-08-28T06:51:38.315Z,19.20
2022-08-28T06:54:06.477Z,19.00
2022-08-28T06:56:34.773Z,19.00
2022-08-28T06:59:02.854Z,18.70
2022-08-28T07:01:33.926Z,18.80
2022-08-28T07:04:03.893Z,18.90
2022-08-28T07:06:35.940Z,19.20
2022-08-28T07:09:05.164Z,19.30
2022-08-28T07:11:34.839Z,19.70
2022-08-28T07:14:03.164Z,19.70
2022-08-28T07:16:32.762Z,19.60
2022-08-28T07:19:03.612Z,19.30
2022-08-28T07:21:33.082Z,19.50
2022-08-28T07:24:06.786Z,19.60
2022-08-28T07:26:35.652Z,19.80
2022-08-28T07:29:10.138Z,19.80
2022-08-28T07:31:40.812Z,19.70
2022-08-28T07:34:09.396Z,19.70
2022-08-28T07:36:39.468Z,19.80
2022-08-28T07:39:08.292Z,19.70
2022-08-28T07:41:39.342Z,19.80
2022-08-28T07:44:25.317Z,19.80
2022-08-28T07:46:54.662Z,20.30
2022-08-28T07:49:23.428Z,20.40
2022-08-28T07:51:53.904Z,19.90
2022-08-28T07:54:23.017Z,20.40
2022-08-28T07:56:51.623Z,21.20
2022-08-28T07:59:20.459Z,22.00
2022-08-28T08:01:51.723Z,22.10
2022-08-28T08:04:21.679Z,22.40
2022-08-28T08:06:53.333Z,22.40
2022-08-28T08:09:27.153Z,22.10
2022-08-28T08:11:56.493Z,22.20
2022-08-28T08:14:25.296Z,22.40
2022-08-28T08:16:53.403Z,22.80
2022-08-28T08:19:21.410Z,22.80
2022-08-28T08:21:53.097Z,22.60
2022-08-28T08:24:25.661Z,22.40
2022-08-28T08:26:59.456Z,22.70
2022-08-28T08:29:31.153Z,22.60
2022-08-28T08:32:04.828Z,22.10
2022-08-28T08:38:33.480Z,22.30
2022-08-28T08:41:02.819Z,22.70
2022-08-28T08:43:44.028Z,23.00
2022-08-28T08:46:11.968Z,23.10
2022-08-28T08:48:43.602Z,23.20
2022-08-28T08:51:20.472Z,23.10
2022-08-28T08:53:55.554Z,23.10
2022-08-28T08:56:23.881Z,23.10
2022-08-28T08:59:05.280Z,23.10
2022-08-28T09:01:40.061Z,23.10
2022-08-28T09:04:22.546Z,23.50
2022-08-28T09:06:52.910Z,23.70
2022-08-28T09:09:28.889Z,23.60
2022-08-28T09:11:59.557Z,23.70
2022-08-28T09:14:38.586Z,23.50
2022-08-28T09:17:07.873Z,23.50
2022-08-28T09:19:36.330Z,23.80
2022-08-28T09:22:04.358Z,24.10
2022-08-28T09:24:36.455Z,24.10
2022-08-28T09:27:13.715Z,24.20
2022-08-28T09:29:52.124Z,24.10
2022-08-28T09:32:26.569Z,24.00
2022-08-28T09:35:05.930Z,24.20
2022-08-28T09:37:35.524Z,24.00
2022-08-28T09:40:23.529Z,24.20
2022-08-28T09:43:19.526Z,24.30
2022-08-28T09:45:55.930Z,24.20
2022-08-28T09:48:25.890Z,24.30
2022-08-28T09:50:59.104Z,24.70
2022-08-28T09:53:30.600Z,24.80
2022-08-28T09:56:11.488Z,24.30
2022-08-28T09:58:43.354Z,23.90
2022-08-28T10:01:35.636Z,24.20
2022-08-28T10:04:15.853Z,24.60
2022-08-28T10:06:51.346Z,24.50
2022-08-28T10:09:28.694Z,24.60
2022-08-28T10:12:05.706Z,24.50
2022-08-28T10:14:45.520Z,24.50
2022-08-28T10:17:26.201Z,24.60
2022-08-28T10:20:01.542Z,25.00
2022-08-28T10:22:40.804Z,25.40
2022-08-28T10:25:19.277Z,25.30
2022-08-28T10:28:01.121Z,25.50
2022-08-28T10:30:31.836Z,25.30
2022-08-28T10:33:16.629Z,25.30
2022-08-28T10:35:53.193Z,24.90
2022-08-28T10:38:28.268Z,25.00
2022-08-28T10:41:02.645Z,25.30
2022-08-28T10:43:34.961Z,25.60
2022-08-28T10:46:06.697Z,25.70
2022-08-28T10:48:43.542Z,25.50
2022-08-28T10:51:17.449Z,25.50
2022-08-28T10:53:48.493Z,25.60
2022-08-28T10:56:19.489Z,25.80
2022-08-28T10:58:50.365Z,25.80
2022-08-28T11:01:28.185Z,25.60
2022-08-28T11:04:00.827Z,25.30
2022-08-28T11:06:34.930Z,25.50
2022-08-28T11:09:22.345Z,25.70
2022-08-28T11:11:52.053Z,25.70
2022-08-28T11:14:30.739Z,25.50
2022-08-28T11:17:02.624Z,25.60
2022-08-28T11:19:53.285Z,25.40
2022-08-28T11:22:24.274Z,25.20
2022-08-28T11:25:04.448Z,25.50
2022-08-28T11:27:36.579Z,25.60
2022-08-28T11:30:32.566Z,25.80
2022-08-28T11:33:07.176Z,26.00
2022-08-28T11:35:51.683Z,25.70
2022-08-28T11:39:11.827Z,25.90
2022-08-28T11:41:41.363Z,25.90
2022-08-28T11:44:41.909Z,25.70
2022-08-28T11:47:36.951Z,25.30
2022-08-28T11:50:14.036Z,25.10
2022-08-28T11:53:17.664Z,25.30
2022-08-28T11:56:05.755Z,25.50
2022-08-28T11:58:43.674Z,25.40
2022-08-28T12:01:14.129Z,25.30
2022-08-28T12:03:44.578Z,25.20
2022-08-28T12:06:13.232Z,25.30
2022-08-28T12:09:11.458Z,25.50
2022-08-28T12:11:54.997Z,25.10
2022-08-28T12:14:58.240Z,24.90
2022-08-28T12:17:31.461Z,24.70
2022-08-28T12:20:08.948Z,24.80
2022-08-28T12:22:46.140Z,25.10
2022-08-28T12:25:25.210Z,25.50
2022-08-28T12:27:56.009Z,25.60
2022-08-28T12:30:34.043Z,25.30
2022-08-28T12:33:12.140Z,25.20
2022-08-28T12:35:40.278Z,25.10
2022-08-28T12:38:09.273Z,25.00
2022-08-28T12:40:50.456Z,25.00
2022-08-28T12:43:35.625Z,25.20
2022-08-28T12:46:19.285Z,25.50
2022-08-28T12:48:52.828Z,25.50
2022-08-28T12:51:24.233Z,25.50
2022-08-28T12:53:55.101Z,25.10
2022-08-28T12:56:25.317Z,25.30
2022-08-28T12:58:54.625Z,25.50
2022-08-28T13:01:29.174Z,25.30
2022-08-28T13:04:00.400Z,25.00
2022-08-28T13:06:30.364Z,25.10
2022-08-28T13:09:02.423Z,25.20
2022-08-28T13:11:34.946Z,25.20
2022-08-28T13:14:05.052Z,25.10
2022-08-28T13:16:39.230Z,25.40
2022-08-28T13:19:25.862Z,25.40
2022-08-28T13:22:00.192Z,25.10
2022-08-28T13:24:38.400Z,25.00
2022-08-28T13:27:24.105Z,25.00
2022-08-28T13:30:00.608Z,25.30
2022-08-28T13:32:32.166Z,25.20
2022-08-28T13:35:30.480Z,25.50
2022-08-28T13:38:06.958Z,25.50
2022-08-28T13:40:59.076Z,25.50
2022-08-28T13:43:33.289Z,25.60
2022-08-28T13:46:02.536Z,25.70
2022-08-28T13:48:37.654Z,25.80
2022-08-28T13:51:12.031Z,25.80
2022-08-28T13:53:49.710Z,25.80
2022-08-28T13:56:22.349Z,25.40
2022-08-28T13:58:57.424Z,25.00
2022-08-28T14:01:44.565Z,24.80
2022-08-28T14:04:14.605Z,24.50
2022-08-28T14:06:44.247Z,24.30
2022-08-28T14:09:15.160Z,24.30
2022-08-28T14:11:51.844Z,24.50
2022-08-28T14:14:21.140Z,24.70
2022-08-28T14:16:53.613Z,24.70
2022-08-28T14:19:21.681Z,24.60
2022-08-28T14:21:49.669Z,24.50
2022-08-28T14:24:18.307Z,24.70
2022-08-28T14:26:47.296Z,24.80
2022-08-28T14:29:18.864Z,24.70
2022-08-28T14:31:47.373Z,24.40
2022-08-28T14:34:19.237Z,24.50
2022-08-28T14:36:50.721Z,24.50
2022-08-28T14:39:26.461Z,24.60
2022-08-28T14:41:55.659Z,24.60
2022-08-28T14:44:29.435Z,24.50
2022-08-28T14:47:02.297Z,24.40
2022-08-28T14:49:33.570Z,24.60
2022-08-28T14:52:09.509Z,24.50
2022-08-28T14:54:41.647Z,24.30
2022-08-28T14:57:12.400Z,24.30
2022-08-28T14:59:42.316Z,24.30
2022-08-28T15:02:12.254Z,24.30
2022-08-28T15:04:45.832Z,24.40
2022-08-28T15:07:17.888Z,24.40
2022-08-28T15:09:49.748Z,24.30
2022-08-28T15:12:18.041Z,24.20
2022-08-28T15:14:54.585Z,24.20
2022-08-28T15:17:34.381Z,24.10
2022-08-28T15:20:05.571Z,24.20
2022-08-28T15:22:33.368Z,24.30
2022-08-28T15:25:01.208Z,24.40
2022-08-28T15:27:29.053Z,24.50
2022-08-28T15:29:56.910Z,24.80
2022-08-28T15:32:24.770Z,24.80
2022-08-28T15:34:53.317Z,24.80
2022-08-28T15:37:22.528Z,24.80
2022-08-28T15:40:08.059Z,24.90
2022-08-28T15:42:35.873Z,25.00
2022-08-28T15:45:03.816Z,25.00
2022-08-28T15:47:31.683Z,25.00
2022-08-28T15:49:59.514Z,25.00
2022-08-28T15:52:28.653Z,24.90
2022-08-28T15:54:56.408Z,24.90
2022-08-28T15:57:24.278Z,24.90
2022-08-28T15:59:52.132Z,24.80
2022-08-28T16:02:22.530Z,24.90
2022-08-28T16:04:50.671Z,24.80
2022-08-28T16:07:19.419Z,24.80
2022-08-28T16:09:48.667Z,24.70
2022-08-28T16:12:16.491Z,24.70
2022-08-28T16:14:44.315Z,24.80
2022-08-28T16:17:12.711Z,24.90
2022-08-28T16:19:41.136Z,24.80
2022-08-28T16:22:09.320Z,24.70
2022-08-28T16:24:37.767Z,24.70
2022-08-28T16:27:09.655Z,24.30
2022-08-28T16:29:39.104Z,24.40
2022-08-28T16:32:07.723Z,24.20
2022-08-28T16:34:37.034Z,24.20
2022-08-28T16:37:05.605Z,24.20
2022-08-28T16:39:35.700Z,24.40
2022-08-28T16:42:03.587Z,24.20
2022-08-28T16:44:32.933Z,24.20
2022-08-28T16:47:00.781Z,24.10
2022-08-28T16:49:28.594Z,24.40
2022-08-28T16:51:56.404Z,24.50
2022-08-28T16:54:24.257Z,24.50
2022-08-28T16:56:52.120Z,24.60
2022-08-28T16:59:23.294Z,24.60
2022-08-28T17:01:53.859Z,24.40
2022-08-28T17:04:22.987Z,24.30
2022-08-28T17:06:51.069Z,24.40
2022-08-28T17:09:20.963Z,24.30
2022-08-28T17:11:51.688Z,24.10
2022-08-28T17:14:20.470Z,23.90
2022-08-28T17:16:48.795Z,23.90
2022-08-28T17:19:18.633Z,24.10
2022-08-28T17:22:04.119Z,24.00
2022-08-28T17:24:32.010Z,24.10
2022-08-28T17:27:05.232Z,24.10
2022-08-28T17:29:33.736Z,23.90
2022-08-28T17:32:01.875Z,24.10
2022-08-28T17:34:31.075Z,24.10
2022-08-28T17:36:58.990Z,24.10
2022-08-28T17:39:27.014Z,23.70
2022-08-28T17:41:54.834Z,23.60
2022-08-28T17:44:23.120Z,24.00
2022-08-28T17:46:52.480Z,23.80
2022-08-28T17:49:22.238Z,23.60
2022-08-28T17:51:51.967Z,23.80
2022-08-28T17:54:22.550Z,23.90
2022-08-28T17:56:51.238Z,24.10
2022-08-28T17:59:20.750Z,24.20
2022-08-28T18:01:49.784Z,24.20
2022-08-28T18:04:24.155Z,24.10
2022-08-28T18:06:54.699Z,24.20
2022-08-28T18:09:23.297Z,24.00
2022-08-28T18:11:51.415Z,24.00
2022-08-28T18:14:19.296Z,24.10
2022-08-28T18:16:47.307Z,24.00
2022-08-28T18:19:16.182Z,23.70
2022-08-28T18:21:44.051Z,23.60
2022-08-28T18:24:13.938Z,23.80
2022-08-28T18:26:43.304Z,23.70
2022-08-28T18:29:11.442Z,23.60
2022-08-28T18:31:39.316Z,23.60
2022-08-28T18:34:08.502Z,23.70
2022-08-28T18:36:39.429Z,23.70
2022-08-28T18:39:07.466Z,23.70
2022-08-28T18:41:44.054Z,23.90
2022-08-28T18:44:13.885Z,23.80
2022-08-28T18:46:42.534Z,23.80
2022-08-28T18:49:10.898Z,23.90
2022-08-28T18:51:38.814Z,24.00
2022-08-28T18:54:06.676Z,23.90
2022-08-28T18:56:37.649Z,23.80
2022-08-28T18:59:06.377Z,23.60
2022-08-28T19:01:34.459Z,23.80
2022-08-28T19:04:02.492Z,23.80
2022-08-28T19:06:30.404Z,23.90
2022-08-28T19:08:58.308Z,23.90
2022-08-28T19:11:26.436Z,24.00
2022-08-28T19:13:55.554Z,24.00
2022-08-28T19:16:23.494Z,24.00
2022-08-28T19:18:53.482Z,24.00
2022-08-28T19:21:21.617Z,24.10
2022-08-28T19:23:56.059Z,24.10
2022-08-28T19:26:24.436Z,24.10
2022-08-28T19:28:52.549Z,24.10
2022-08-28T19:31:22.418Z,24.20
2022-08-28T19:33:50.570Z,24.20
2022-08-28T19:36:19.251Z,24.20
2022-08-28T19:38:47.217Z,24.20
2022-08-28T19:41:15.138Z,24.20
2022-08-28T19:43:44.654Z,24.20
2022-08-28T19:46:19.557Z,24.20
2022-08-28T19:48:50.525Z,24.20
2022-08-28T19:51:23.339Z,24.20
2022-08-28T19:53:57.145Z,24.20
2022-08-28T19:56:27.682Z,24.20
2022-08-28T19:58:57.337Z,24.20
2022-08-28T20:01:25.261Z,24.20
2022-08-28T20:03:54.410Z,24.10
2022-08-28T20:06:22.180Z,24.10
2022-08-28T20:08:50.666Z,24.10
2022-08-28T20:11:24.615Z,24.10
2022-08-28T20:13:52.969Z,24.20
2022-08-28T20:16:21.353Z,24.20
2022-08-28T20:18:50.198Z,24.20
2022-08-28T20:21:28.811Z,24.10
2022-08-28T20:24:06.293Z,24.10
2022-08-28T20:26:34.122Z,24.20
2022-08-28T20:29:01.981Z,24.20
2022-08-28T20:31:29.854Z,24.10
2022-08-28T20:33:57.778Z,24.20
2022-08-28T20:36:27.123Z,24.30
2022-08-28T20:38:55.295Z,24.20
2022-08-28T20:41:23.651Z,24.20
2022-08-28T20:43:51.560Z,24.20
2022-08-28T20:46:19.697Z,24.20
2022-08-28T20:48:47.653Z,24.20
2022-08-28T20:51:15.486Z,24.10
2022-08-28T20:53:45.432Z,24.20
2022-08-28T20:56:13.326Z,24.20
2022-08-28T20:58:41.175Z,24.10
2022-08-28T21:01:09.040Z,24.10
2022-08-28T21:03:36.886Z,24.10
2022-08-28T21:06:04.952Z,24.10
2022-08-28T21:08:32.806Z,24.10
2022-08-28T21:11:01.900Z,24.10
2022-08-28T21:13:29.749Z,24.20
2022-08-28T21:15:57.593Z,24.20
2022-08-28T21:18:25.504Z,24.10
2022-08-28T21:20:55.612Z,24.10
2022-08-28T21:23:24.380Z,24.00
2022-08-28T21:25:52.199Z,24.00
2022-08-28T21:28:21.388Z,24.10
2022-08-28T21:30:49.194Z,24.00
2022-08-28T21:33:17.050Z,24.10
2022-08-28T21:35:46.230Z,24.00
2022-08-28T21:38:14.189Z,23.90
2022-08-28T21:40:42.433Z,23.90
2022-08-28T21:43:10.304Z,23.80
2022-08-28T21:45:39.552Z,23.90
2022-08-28T21:48:07.961Z,24.00
2022-08-28T21:50:35.798Z,23.90
2022-08-28T21:53:03.681Z,24.00
2022-08-28T21:55:31.508Z,23.90
2022-08-28T21:57:59.301Z,23.90
2022-08-28T22:00:27.173Z,23.90
2022-08-28T22:02:56.400Z,23.90
2022-08-28T22:05:24.412Z,23.90
2022-08-28T22:07:52.322Z,23.90
2022-08-28T22:10:20.111Z,23.90
2022-08-28T22:12:47.887Z,24.00
2022-08-28T22:15:15.822Z,23.80
2022-08-28T22:17:43.681Z,23.90
2022-08-28T22:20:13.098Z,23.90
2022-08-28T22:22:58.461Z,23.90
2022-08-28T22:25:26.447Z,23.90
2022-08-28T22:27:54.293Z,23.90
2022-08-28T22:30:22.655Z,23.80
2022-08-28T22:32:52.009Z,23.90
2022-08-28T22:35:21.349Z,24.00
2022-08-28T22:37:49.506Z,24.00
2022-08-28T22:40:17.394Z,24.00
2022-08-28T22:42:45.278Z,23.90
2022-08-28T22:45:13.500Z,23.80
2022-08-28T22:47:41.356Z,23.80
2022-08-28T22:50:09.571Z,23.90
2022-08-28T22:52:39.736Z,23.90
2022-08-28T22:55:10.414Z,23.80
2022-08-28T22:57:40.207Z,23.70
2022-08-28T23:00:11.214Z,23.80
2022-08-28T23:02:39.765Z,23.90
2022-08-28T23:05:08.877Z,23.90
2022-08-28T23:07:38.281Z,23.90
2022-08-28T23:10:06.950Z,23.80
2022-08-28T23:12:35.395Z,23.80
2022-08-28T23:15:06.097Z,23.80
2022-08-28T23:17:33.933Z,23.80
2022-08-28T23:20:01.768Z,23.80
2022-08-28T23:22:29.609Z,23.90
2022-08-28T23:24:58.721Z,23.80
2022-08-28T23:27:36.315Z,23.70
2022-08-28T23:30:07.962Z,23.70
2022-08-28T23:32:35.870Z,23.80
2022-08-28T23:35:07.110Z,23.70
2022-08-28T23:37:36.237Z,23.70
2022-08-28T23:40:08.104Z,23.60
2022-08-28T23:42:36.106Z,23.60
2022-08-28T23:45:05.317Z,23.60
2022-08-28T23:47:33.373Z,23.60
2022-08-28T23:50:01.259Z,23.70
2022-08-28T23:52:29.058Z,23.60
2022-08-28T23:54:56.872Z,23.40
2022-08-28T23:57:26.092Z,23.50
2022-08-28T23:59:54.090Z,23.60
